createdAt,value
2023-04-01T00:01:51.810Z,5.90
2023-04-01T00:05:57.448Z,5.90
2023-04-01T00:10:03.142Z,5.90
2023-04-01T00:14:06.941Z,5.80
2023-04-01T00:18:10.541Z,5.80
2023-04-01T00:22:27.320Z,5.70
2023-04-01T00:26:30.814Z,5.70
2023-04-01T00:30:34.389Z,5.70
2023-04-01T00:34:42.136Z,5.70
2023-04-01T00:38:47.983Z,5.70
2023-04-01T00:43:47.188Z,5.70
2023-04-01T00:47:50.881Z,5.70
2023-04-01T00:51:57.258Z,5.70
2023-04-01T00:56:19.640Z,5.70
2023-04-01T01:00:23.517Z,5.70
2023-04-01T01:04:28.769Z,5.90
2023-04-01T01:09:26.968Z,5.90
2023-04-01T01:13:40.938Z,5.90
2023-04-01T01:17:53.758Z,5.90
2023-04-01T01:22:15.120Z,5.90
2023-04-01T01:26:51.577Z,5.90
2023-04-01T01:40:29.993Z,6.00
2023-04-01T01:44:34.146Z,5.90
2023-04-01T01:48:42.127Z,5.90
2023-04-01T01:52:47.070Z,5.90
2023-04-01T01:57:06.269Z,5.90
2023-04-01T02:01:14.550Z,5.90
2023-04-01T02:05:21.487Z,5.90
2023-04-01T02:09:27.651Z,5.90
2023-04-01T02:13:39.294Z,5.90
2023-04-01T02:17:46.381Z,5.90
2023-04-01T02:21:54.084Z,5.80
2023-04-01T02:26:05.530Z,5.80
2023-04-01T02:30:10.810Z,5.80
2023-04-01T02:34:14.972Z,5.80
2023-04-01T02:38:18.669Z,5.80
2023-04-01T02:42:49.214Z,5.80
2023-04-01T02:46:53.806Z,5.70
2023-04-01T02:50:57.731Z,5.70
2023-04-01T02:55:02.541Z,5.70
2023-04-01T02:59:08.529Z,5.70
2023-04-01T03:03:14.015Z,5.60
2023-04-01T03:07:21.928Z,5.60
2023-04-01T03:11:27.369Z,5.60
2023-04-01T03:15:32.748Z,5.60
2023-04-01T03:19:46.826Z,5.60
2023-04-01T03:23:51.430Z,5.60
2023-04-01T03:27:54.962Z,5.60
2023-04-01T03:32:00.733Z,5.50
2023-04-01T03:36:07.430Z,5.50
2023-04-01T03:40:12.516Z,5.60
2023-04-01T03:44:16.390Z,5.50
2023-04-01T03:48:22.903Z,5.50
2023-04-01T03:52:51.429Z,5.50
2023-04-01T03:57:20.537Z,5.50
2023-04-01T04:01:30.891Z,5.50
2023-04-01T04:05:36.413Z,5.50
2023-04-01T04:09:40.598Z,5.50
2023-04-01T04:13:44.870Z,5.50
2023-04-01T04:17:49.337Z,5.50
2023-04-01T04:21:54.461Z,5.50
2023-04-01T04:26:03.179Z,5.50
2023-04-01T04:30:09.419Z,5.50
2023-04-01T04:34:13.746Z,5.50
2023-04-01T04:38:43.954Z,5.40
2023-04-01T04:42:47.661Z,5.40
2023-04-01T04:46:55.485Z,5.50
2023-04-01T04:51:21.589Z,5.60
2023-04-01T04:55:26.578Z,5.60
2023-04-01T05:00:02.099Z,5.60
2023-04-01T05:04:51.416Z,5.60
2023-04-01T05:08:56.450Z,5.70
2023-04-01T05:13:01.644Z,5.80
2023-04-01T05:17:05.414Z,6.60
2023-04-01T05:21:10.344Z,6.80
2023-04-01T05:25:14.263Z,6.60
2023-04-01T05:29:19.292Z,6.40
2023-04-01T05:33:42.918Z,6.30
2023-04-01T05:37:46.627Z,6.30
2023-04-01T05:41:51.892Z,6.20
2023-04-01T05:45:57.047Z,6.30
2023-04-01T05:50:24.863Z,6.40
2023-04-01T05:54:28.468Z,6.50
2023-04-01T05:58:57.485Z,6.60
2023-04-01T06:03:29.122Z,6.70
2023-04-01T06:07:48.272Z,6.90
2023-04-01T06:12:25.609Z,7.00
2023-04-01T06:16:47.533Z,7.00
2023-04-01T06:21:03.878Z,7.00
2023-04-01T06:25:42.814Z,7.10
2023-04-01T06:30:05.472Z,7.20
2023-04-01T06:34:41.460Z,7.30
2023-04-01T06:39:01.178Z,7.50
2023-04-01T06:43:16.514Z,7.60
2023-04-01T06:48:26.185Z,7.70
2023-04-01T06:53:17.696Z,7.60
2023-04-01T06:58:06.898Z,7.70
2023-04-01T07:02:25.662Z,7.70
2023-04-01T07:06:34.011Z,7.70
2023-04-01T07:10:48.403Z,7.90
2023-04-01T07:15:31.715Z,7.90
2023-04-01T07:19:56.867Z,7.90
2023-04-01T07:24:07.532Z,7.90
2023-04-01T07:28:24.225Z,7.90
2023-04-01T07:32:55.417Z,8.00
2023-04-01T07:37:06.507Z,8.10
2023-04-01T07:41:25.317Z,8.10
2023-04-01T07:45:34.623Z,8.20
2023-04-01T07:50:01.290Z,8.10
2023-04-01T07:54:13.725Z,8.20
2023-04-01T07:58:33.320Z,8.30
2023-04-01T08:02:52.887Z,8.30
2023-04-01T08:07:20.655Z,8.30
2023-04-01T08:12:10.500Z,8.40
2023-04-01T08:17:24.442Z,8.60
2023-04-01T08:21:31.079Z,8.70
2023-04-01T08:25:40.173Z,8.80
2023-04-01T08:29:49.193Z,8.70
2023-04-01T08:33:57.539Z,8.70
2023-04-01T08:38:08.512Z,8.60
2023-04-01T08:42:54.977Z,8.70
2023-04-01T08:47:26.964Z,9.00
2023-04-01T08:52:01.568Z,9.00
2023-04-01T08:56:29.402Z,9.30
2023-04-01T09:00:57.773Z,9.60
2023-04-01T09:05:57.060Z,9.60
2023-04-01T09:10:33.177Z,9.60
2023-04-01T09:15:16.295Z,9.90
2023-04-01T09:19:42.276Z,10.00
2023-04-01T09:24:09.253Z,9.90
2023-04-01T09:28:15.502Z,10.30
2023-04-01T09:32:54.078Z,10.50
2023-04-01T09:37:23.870Z,10.40
2023-04-01T09:41:35.291Z,10.40
2023-04-01T09:46:18.770Z,10.40
2023-04-01T09:50:53.028Z,10.20
2023-04-01T09:55:11.024Z,9.90
2023-04-01T09:59:42.070Z,9.90
2023-04-01T10:11:26.956Z,10.10
2023-04-01T10:16:19.869Z,10.20
2023-04-01T10:20:56.696Z,10.30
2023-04-01T10:31:49.591Z,10.50
2023-04-01T10:36:26.281Z,10.50
2023-04-01T10:41:14.502Z,10.60
2023-04-01T10:46:16.931Z,10.70
2023-04-01T10:51:42.418Z,10.70
2023-04-01T10:56:32.102Z,10.90
2023-04-01T11:02:04.118Z,11.30
2023-04-01T11:07:24.621Z,11.30
2023-04-01T11:12:11.517Z,10.80
2023-04-01T11:16:56.632Z,11.00
2023-04-01T11:21:46.888Z,11.20
2023-04-01T11:26:07.260Z,11.40
2023-04-01T11:31:02.660Z,11.30
2023-04-01T11:35:28.801Z,11.00
2023-04-01T11:40:03.196Z,10.90
2023-04-01T11:44:30.047Z,11.00
2023-04-01T11:49:18.256Z,11.10
2023-04-01T11:54:01.833Z,11.30
2023-04-01T11:58:20.839Z,11.30
2023-04-01T12:02:40.831Z,11.30
2023-04-01T12:07:08.802Z,11.40
2023-04-01T12:11:20.018Z,11.50
2023-04-01T12:15:49.943Z,11.50
2023-04-01T12:20:04.163Z,11.50
2023-04-01T12:24:52.328Z,11.50
2023-04-01T12:29:13.862Z,11.70
2023-04-01T12:33:50.676Z,11.80
2023-04-01T12:38:16.902Z,12.10
2023-04-01T12:43:26.561Z,12.10
2023-04-01T12:48:19.104Z,12.00
2023-04-01T12:52:35.798Z,12.20
2023-04-01T12:56:49.264Z,12.50
2023-04-01T13:01:52.202Z,12.50
2023-04-01T13:06:28.528Z,12.60
2023-04-01T13:10:51.732Z,12.90
2023-04-01T13:15:25.224Z,13.20
2023-04-01T13:19:34.754Z,12.90
2023-04-01T13:24:01.842Z,12.70
2023-04-01T13:28:15.315Z,12.90
2023-04-01T13:32:43.352Z,12.80
2023-04-01T13:37:04.432Z,12.80
2023-04-01T13:41:24.032Z,12.90
2023-04-01T13:45:36.594Z,12.70
2023-04-01T13:50:32.590Z,12.40
2023-04-01T13:55:16.753Z,12.00
2023-04-01T14:00:05.396Z,11.70
2023-04-01T14:04:57.398Z,11.70
2023-04-01T14:09:33.988Z,11.70
2023-04-01T14:13:56.064Z,11.80
2023-04-01T14:18:27.868Z,11.90
2023-04-01T14:22:45.440Z,11.90
2023-04-01T14:27:38.562Z,11.70
2023-04-01T14:32:01.671Z,11.60
2023-04-01T14:36:40.717Z,11.60
2023-04-01T14:41:08.753Z,11.50
2023-04-01T14:46:46.371Z,11.60
2023-04-01T14:55:48.454Z,11.40
2023-04-01T14:59:54.609Z,11.40
2023-04-01T15:04:30.967Z,11.30
2023-04-01T15:08:51.265Z,11.40
2023-04-01T15:13:21.967Z,11.40
2023-04-01T15:17:47.802Z,11.50
2023-04-01T15:22:17.686Z,11.50
2023-04-01T15:26:54.139Z,11.40
2023-04-01T15:31:05.379Z,11.30
2023-04-01T15:35:23.866Z,11.20
2023-04-01T15:39:41.040Z,11.20
2023-04-01T15:43:49.897Z,11.00
2023-04-01T15:48:13.981Z,10.90
2023-04-01T15:52:25.004Z,10.80
2023-04-01T15:56:47.569Z,10.60
2023-04-01T16:01:01.719Z,10.50
2023-04-01T16:05:32.501Z,10.40
2023-04-01T16:09:57.541Z,10.30
2023-04-01T16:14:12.560Z,10.10
2023-04-01T16:19:02.027Z,10.10
2023-04-01T16:23:19.819Z,9.90
2023-04-01T16:27:31.043Z,9.90
2023-04-01T16:31:40.882Z,9.70
2023-04-01T16:35:59.600Z,9.60
2023-04-01T16:40:17.317Z,9.50
2023-04-01T16:44:49.786Z,9.30
2023-04-01T16:49:33.299Z,9.10
2023-04-01T16:53:45.885Z,9.00
2023-04-01T16:57:53.699Z,8.90
2023-04-01T17:02:09.997Z,8.70
2023-04-01T17:06:27.733Z,8.50
2023-04-01T17:10:45.168Z,8.20
2023-04-01T17:14:54.755Z,8.10
2023-04-01T17:19:26.383Z,8.10
2023-04-01T17:23:46.058Z,8.00
2023-04-01T17:27:54.486Z,7.90
2023-04-01T17:32:10.801Z,7.80
2023-04-01T17:36:35.808Z,7.70
2023-04-01T17:41:09.678Z,7.60
2023-04-01T17:45:26.021Z,7.50
2023-04-01T17:49:44.209Z,7.40
2023-04-01T17:58:47.556Z,7.30
2023-04-01T18:03:16.599Z,7.20
2023-04-01T18:08:13.329Z,7.10
2023-04-01T18:12:33.999Z,7.00
2023-04-01T18:16:49.791Z,6.90
2023-04-01T18:21:11.819Z,6.80
2023-04-01T18:25:25.742Z,6.70
2023-04-01T18:29:42.764Z,6.60
2023-04-01T18:33:53.090Z,6.50
2023-04-01T18:38:03.018Z,6.50
2023-04-01T18:42:36.049Z,6.40
2023-04-01T18:46:43.505Z,6.50
2023-04-01T18:51:09.262Z,6.50
2023-04-01T18:55:44.049Z,6.50
2023-04-01T19:00:17.308Z,6.50
2023-04-01T19:04:42.005Z,6.50
2023-04-01T19:08:47.419Z,6.40
2023-04-01T19:13:17.151Z,6.40
2023-04-01T19:17:34.136Z,6.40
2023-04-01T19:21:41.996Z,6.40
2023-04-01T19:25:53.342Z,6.50
2023-04-01T19:30:19.945Z,6.40
2023-04-01T19:34:32.163Z,6.50
2023-04-01T19:38:43.195Z,6.40
2023-04-01T19:42:57.146Z,6.40
2023-04-01T19:47:16.275Z,6.40
2023-04-01T19:51:32.286Z,6.50
2023-04-01T19:55:43.274Z,6.50
2023-04-01T19:59:51.660Z,6.50
2023-04-01T20:04:17.698Z,6.60
2023-04-01T20:08:35.763Z,6.60
2023-04-01T20:12:47.888Z,6.60
2023-04-01T20:17:03.850Z,6.60
2023-04-01T20:21:22.572Z,6.60
2023-04-01T20:25:29.532Z,6.70
2023-04-01T20:30:27.769Z,6.70
2023-04-01T20:34:49.697Z,6.80
2023-04-01T20:40:00.496Z,6.80
2023-04-01T20:44:40.250Z,6.80
2023-04-01T20:49:30.903Z,6.80
2023-04-01T20:53:39.874Z,6.80
2023-04-01T20:58:01.942Z,6.80
2023-04-01T21:02:40.787Z,6.80
2023-04-01T21:07:28.489Z,6.80
2023-04-01T21:11:45.793Z,6.80
2023-04-01T21:16:08.976Z,6.80
2023-04-01T21:20:36.543Z,6.80
2023-04-01T21:25:35.348Z,6.90
2023-04-01T21:30:14.428Z,6.90
2023-04-01T21:34:44.599Z,6.90
2023-04-01T21:39:02.065Z,6.90
2023-04-01T21:43:36.020Z,6.90
2023-04-01T21:48:32.050Z,6.90
2023-04-01T21:53:02.969Z,6.90
2023-04-01T21:57:42.875Z,6.90
2023-04-01T22:02:36.316Z,6.90
2023-04-01T22:06:47.960Z,6.90
2023-04-01T22:11:10.599Z,6.90
2023-04-01T22:15:38.605Z,6.90
2023-04-01T22:19:51.964Z,6.90
2023-04-01T22:24:06.994Z,6.90
2023-04-01T22:28:14.217Z,6.90
2023-04-01T22:32:33.349Z,6.80
2023-04-01T22:36:45.727Z,6.80
2023-04-01T22:40:55.952Z,6.80
2023-04-01T22:45:22.109Z,6.80
2023-04-01T22:49:42.537Z,6.80
2023-04-01T22:53:58.305Z,6.70
2023-04-01T22:58:06.303Z,6.70
2023-04-01T23:02:26.608Z,6.70
2023-04-01T23:06:40.039Z,6.60
2023-04-01T23:10:46.994Z,6.60
2023-04-01T23:14:53.890Z,6.60
2023-04-01T23:19:11.701Z,6.60
2023-04-01T23:23:36.233Z,6.60
2023-04-01T23:28:20.280Z,6.60
2023-04-01T23:32:27.478Z,6.60
2023-04-01T23:36:33.158Z,6.60
2023-04-01T23:40:39.913Z,6.60
2023-04-01T23:44:44.886Z,6.50
2023-04-01T23:48:49.421Z,6.60
2023-04-01T23:52:59.717Z,6.60
2023-04-01T23:57:24.234Z,6.60
